logo
Rechercher aéroport 
image banner adimage banner adimage banner ad
image banner ad

33CN - Platform Hillhouse

Situé à Carpinteria, United States

ICAO - 33CN, IATA -

Données fournies par Airmate  

Information générale

Coordonnées: N34°19'52" W119°36'16"
Élévation : 98 feet MSL.
Variation magnétique : 14° East
Voir autres Aéroports à California

Données opérationnelles

Special qualification required
Heure actuelle UTC:
Heure actuelle locale:
Météo à : KSBA - Santa Barbara Muni ( 24 km )
METAR: KSBA 182353Z 18005KT 10SM SCT040 22/14 A2979 RMK AO2 SLP086 T02220139 10228 20211 58009 $
TAF: KSBA 112346Z 1200/1224 25015KT P6SM VCSH SCT030 BKN100 FM120400 VRB03KT P6SM BKN120 FM121900 21005KT P6SM SCT004 FM122100 24005KT P6SM BKN100
Voir NOTAMs / SUP AIP / TFR affectant cet aéroport [VIEW]
Fréquences de communication: [VIEW]

Pistes:

Coordonnées de l'aéroport

Adresse: Carpinteria United States

Vue satellite de 33CN